sensor_id;sensor_type;location;lat;lon;timestamp;P1;durP1;ratioP1;P2;durP2;ratioP2
18822;SDS011;9540;51.550;7.980;2023-05-19T00:00:56;9.03;;;5.50;;
18822;SDS011;9540;51.550;7.980;2023-05-19T00:03:24;7.20;;;4.60;;
18822;SDS011;9540;51.550;7.980;2023-05-19T00:05:52;7.10;;;4.80;;
18822;SDS011;9540;51.550;7.980;2023-05-19T00:08:19;7.83;;;4.93;;
18822;SDS011;9540;51.550;7.980;2023-05-19T00:10:49;7.63;;;5.00;;
18822;SDS011;9540;51.550;7.980;2023-05-19T00:13:16;7.40;;;4.83;;
18822;SDS011;9540;51.550;7.980;2023-05-19T00:15:44;8.30;;;5.20;;
18822;SDS011;9540;51.550;7.980;2023-05-19T00:18:13;6.53;;;4.63;;
18822;SDS011;9540;51.550;7.980;2023-05-19T00:20:40;8.40;;;5.20;;
18822;SDS011;9540;51.550;7.980;2023-05-19T00:23:09;8.93;;;5.10;;
18822;SDS011;9540;51.550;7.980;2023-05-19T00:25:37;10.20;;;5.10;;
18822;SDS011;9540;51.550;7.980;2023-05-19T00:28:04;6.03;;;4.13;;
18822;SDS011;9540;51.550;7.980;2023-05-19T00:30:31;8.23;;;4.30;;
18822;SDS011;9540;51.550;7.980;2023-05-19T00:32:58;6.67;;;4.50;;
18822;SDS011;9540;51.550;7.980;2023-05-19T00:35:27;8.40;;;4.23;;
18822;SDS011;9540;51.550;7.980;2023-05-19T00:37:54;7.80;;;4.67;;
18822;SDS011;9540;51.550;7.980;2023-05-19T00:40:24;5.23;;;4.10;;
18822;SDS011;9540;51.550;7.980;2023-05-19T00:42:52;9.00;;;4.70;;
18822;SDS011;9540;51.550;7.980;2023-05-19T00:45:19;4.53;;;4.00;;
18822;SDS011;9540;51.550;7.980;2023-05-19T00:47:47;5.87;;;3.93;;
18822;SDS011;9540;51.550;7.980;2023-05-19T00:50:14;7.47;;;4.50;;
18822;SDS011;9540;51.550;7.980;2023-05-19T00:52:42;8.30;;;4.10;;
18822;SDS011;9540;51.550;7.980;2023-05-19T00:55:09;8.00;;;4.53;;
18822;SDS011;9540;51.550;7.980;2023-05-19T00:57:38;5.40;;;4.37;;
18822;SDS011;9540;51.550;7.980;2023-05-19T01:00:05;5.17;;;4.57;;
18822;SDS011;9540;51.550;7.980;2023-05-19T01:02:33;8.83;;;5.23;;
18822;SDS011;9540;51.550;7.980;2023-05-19T01:05:02;6.00;;;5.07;;
18822;SDS011;9540;51.550;7.980;2023-05-19T01:07:30;6.67;;;4.50;;
18822;SDS011;9540;51.550;7.980;2023-05-19T01:09:59;8.03;;;5.03;;
18822;SDS011;9540;51.550;7.980;2023-05-19T01:12:26;7.97;;;5.67;;
18822;SDS011;9540;51.550;7.980;2023-05-19T01:14:54;6.07;;;4.80;;
18822;SDS011;9540;51.550;7.980;2023-05-19T01:17:23;8.53;;;4.97;;
18822;SDS011;9540;51.550;7.980;2023-05-19T01:19:56;6.37;;;4.57;;
18822;SDS011;9540;51.550;7.980;2023-05-19T01:22:46;9.33;;;4.37;;
18822;SDS011;9540;51.550;7.980;2023-05-19T01:25:46;7.20;;;4.80;;
18822;SDS011;9540;51.550;7.980;2023-05-19T01:28:52;8.23;;;5.33;;
18822;SDS011;9540;51.550;7.980;2023-05-19T01:31:48;9.73;;;5.07;;
18822;SDS011;9540;51.550;7.980;2023-05-19T01:34:16;7.43;;;5.10;;
18822;SDS011;9540;51.550;7.980;2023-05-19T01:36:45;8.93;;;5.33;;
18822;SDS011;9540;51.550;7.980;2023-05-19T01:39:13;7.43;;;4.77;;
18822;SDS011;9540;51.550;7.980;2023-05-19T01:41:41;5.93;;;5.10;;
18822;SDS011;9540;51.550;7.980;2023-05-19T01:44:10;10.13;;;5.13;;
18822;SDS011;9540;51.550;7.980;2023-05-19T01:46:38;7.63;;;5.50;;
18822;SDS011;9540;51.550;7.980;2023-05-19T01:49:07;7.20;;;5.53;;
18822;SDS011;9540;51.550;7.980;2023-05-19T01:51:34;8.47;;;5.67;;
18822;SDS011;9540;51.550;7.980;2023-05-19T01:54:02;9.70;;;5.20;;
18822;SDS011;9540;51.550;7.980;2023-05-19T01:56:31;7.27;;;5.40;;
18822;SDS011;9540;51.550;7.980;2023-05-19T01:59:09;9.37;;;5.20;;
18822;SDS011;9540;51.550;7.980;2023-05-19T02:01:51;10.03;;;5.83;;
18822;SDS011;9540;51.550;7.980;2023-05-19T02:04:24;6.50;;;5.47;;
18822;SDS011;9540;51.550;7.980;2023-05-19T02:07:04;7.93;;;4.93;;
18822;SDS011;9540;51.550;7.980;2023-05-19T02:09:40;6.90;;;4.93;;
18822;SDS011;9540;51.550;7.980;2023-05-19T02:12:17;6.37;;;4.30;;
18822;SDS011;9540;51.550;7.980;2023-05-19T02:14:51;7.57;;;4.53;;
18822;SDS011;9540;51.550;7.980;2023-05-19T02:17:25;9.53;;;4.60;;
18822;SDS011;9540;51.550;7.980;2023-05-19T02:19:58;7.33;;;4.90;;
18822;SDS011;9540;51.550;7.980;2023-05-19T02:22:25;5.23;;;4.27;;
18822;SDS011;9540;51.550;7.980;2023-05-19T02:24:52;6.57;;;5.00;;
18822;SDS011;9540;51.550;7.980;2023-05-19T02:27:21;9.60;;;4.57;;
18822;SDS011;9540;51.550;7.980;2023-05-19T02:29:48;8.97;;;5.63;;
18822;SDS011;9540;51.550;7.980;2023-05-19T02:32:16;8.57;;;4.20;;
18822;SDS011;9540;51.550;7.980;2023-05-19T02:34:43;5.10;;;3.87;;
18822;SDS011;9540;51.550;7.980;2023-05-19T02:37:11;4.93;;;4.50;;
18822;SDS011;9540;51.550;7.980;2023-05-19T02:39:39;7.40;;;4.40;;
18822;SDS011;9540;51.550;7.980;2023-05-19T02:42:09;7.70;;;4.60;;
18822;SDS011;9540;51.550;7.980;2023-05-19T02:44:36;4.90;;;4.23;;
18822;SDS011;9540;51.550;7.980;2023-05-19T02:47:03;8.33;;;4.67;;
18822;SDS011;9540;51.550;7.980;2023-05-19T02:49:31;11.17;;;6.40;;
18822;SDS011;9540;51.550;7.980;2023-05-19T02:52:00;9.87;;;5.20;;
18822;SDS011;9540;51.550;7.980;2023-05-19T02:54:29;6.30;;;4.37;;
18822;SDS011;9540;51.550;7.980;2023-05-19T02:56:56;7.83;;;4.73;;
18822;SDS011;9540;51.550;7.980;2023-05-19T02:59:23;6.87;;;5.10;;
18822;SDS011;9540;51.550;7.980;2023-05-19T03:01:53;8.30;;;4.30;;
18822;SDS011;9540;51.550;7.980;2023-05-19T03:04:20;8.47;;;5.30;;
18822;SDS011;9540;51.550;7.980;2023-05-19T03:06:48;6.50;;;4.77;;
18822;SDS011;9540;51.550;7.980;2023-05-19T03:09:15;9.53;;;5.30;;
18822;SDS011;9540;51.550;7.980;2023-05-19T03:11:44;7.33;;;4.90;;
18822;SDS011;9540;51.550;7.980;2023-05-19T03:14:11;9.10;;;5.23;;
18822;SDS011;9540;51.550;7.980;2023-05-19T03:16:38;7.93;;;4.43;;
18822;SDS011;9540;51.550;7.980;2023-05-19T03:19:06;5.80;;;4.10;;
18822;SDS011;9540;51.550;7.980;2023-05-19T03:21:33;8.40;;;5.20;;
18822;SDS011;9540;51.550;7.980;2023-05-19T03:24:00;10.83;;;4.67;;
18822;SDS011;9540;51.550;7.980;2023-05-19T03:26:27;9.47;;;4.80;;
18822;SDS011;9540;51.550;7.980;2023-05-19T03:28:56;9.40;;;4.63;;
18822;SDS011;9540;51.550;7.980;2023-05-19T03:31:23;7.90;;;4.50;;
18822;SDS011;9540;51.550;7.980;2023-05-19T03:33:50;6.83;;;3.97;;
18822;SDS011;9540;51.550;7.980;2023-05-19T03:36:17;7.53;;;4.67;;
18822;SDS011;9540;51.550;7.980;2023-05-19T03:38:46;7.43;;;4.30;;
18822;SDS011;9540;51.550;7.980;2023-05-19T03:41:13;7.27;;;4.57;;
18822;SDS011;9540;51.550;7.980;2023-05-19T03:43:40;6.07;;;4.17;;
18822;SDS011;9540;51.550;7.980;2023-05-19T03:46:08;5.17;;;4.13;;
18822;SDS011;9540;51.550;7.980;2023-05-19T03:48:35;5.17;;;4.53;;
18822;SDS011;9540;51.550;7.980;2023-05-19T03:51:03;8.53;;;5.13;;
18822;SDS011;9540;51.550;7.980;2023-05-19T03:53:30;8.17;;;4.93;;
18822;SDS011;9540;51.550;7.980;2023-05-19T03:55:57;7.90;;;4.97;;
18822;SDS011;9540;51.550;7.980;2023-05-19T03:58:24;6.53;;;4.40;;
18822;SDS011;9540;51.550;7.980;2023-05-19T04:00:54;7.83;;;4.30;;
18822;SDS011;9540;51.550;7.980;2023-05-19T04:03:22;5.53;;;4.30;;
18822;SDS011;9540;51.550;7.980;2023-05-19T04:05:50;6.20;;;4.43;;
18822;SDS011;9540;51.550;7.980;2023-05-19T04:08:18;10.50;;;4.07;;
18822;SDS011;9540;51.550;7.980;2023-05-19T04:10:45;6.07;;;4.47;;
18822;SDS011;9540;51.550;7.980;2023-05-19T04:13:12;7.43;;;4.63;;
18822;SDS011;9540;51.550;7.980;2023-05-19T04:15:39;7.90;;;4.40;;
18822;SDS011;9540;51.550;7.980;2023-05-19T04:18:06;5.67;;;4.60;;
18822;SDS011;9540;51.550;7.980;2023-05-19T04:20:35;5.63;;;3.93;;
18822;SDS011;9540;51.550;7.980;2023-05-19T04:23:02;7.73;;;4.60;;
18822;SDS011;9540;51.550;7.980;2023-05-19T04:25:29;5.13;;;4.43;;
18822;SDS011;9540;51.550;7.980;2023-05-19T04:27:56;7.33;;;4.60;;
18822;SDS011;9540;51.550;7.980;2023-05-19T04:30:25;5.63;;;3.70;;
18822;SDS011;9540;51.550;7.980;2023-05-19T04:32:52;5.63;;;4.40;;
18822;SDS011;9540;51.550;7.980;2023-05-19T04:35:22;9.30;;;4.10;;
18822;SDS011;9540;51.550;7.980;2023-05-19T04:37:50;5.87;;;4.57;;
18822;SDS011;9540;51.550;7.980;2023-05-19T04:40:18;5.63;;;4.93;;
18822;SDS011;9540;51.550;7.980;2023-05-19T04:42:47;8.10;;;5.53;;
18822;SDS011;9540;51.550;7.980;2023-05-19T04:45:16;7.13;;;4.87;;
18822;SDS011;9540;51.550;7.980;2023-05-19T04:47:43;9.07;;;4.73;;
18822;SDS011;9540;51.550;7.980;2023-05-19T04:50:12;8.57;;;4.57;;
18822;SDS011;9540;51.550;7.980;2023-05-19T04:52:40;4.70;;;4.20;;
18822;SDS011;9540;51.550;7.980;2023-05-19T04:55:10;5.30;;;4.40;;
18822;SDS011;9540;51.550;7.980;2023-05-19T04:57:38;5.20;;;4.47;;
18822;SDS011;9540;51.550;7.980;2023-05-19T05:00:07;9.10;;;4.70;;
18822;SDS011;9540;51.550;7.980;2023-05-19T05:02:37;8.87;;;4.83;;
18822;SDS011;9540;51.550;7.980;2023-05-19T05:05:05;7.80;;;4.80;;
18822;SDS011;9540;51.550;7.980;2023-05-19T05:07:34;9.17;;;4.87;;
18822;SDS011;9540;51.550;7.980;2023-05-19T05:10:01;14.07;;;5.37;;
18822;SDS011;9540;51.550;7.980;2023-05-19T05:12:31;9.88;;;5.47;;
18822;SDS011;9540;51.550;7.980;2023-05-19T05:14:58;7.27;;;4.57;;
18822;SDS011;9540;51.550;7.980;2023-05-19T05:17:26;8.50;;;5.15;;
18822;SDS011;9540;51.550;7.980;2023-05-19T05:19:54;7.90;;;4.53;;
18822;SDS011;9540;51.550;7.980;2023-05-19T05:22:22;11.25;;;5.47;;
18822;SDS011;9540;51.550;7.980;2023-05-19T05:24:49;9.00;;;4.43;;
18822;SDS011;9540;51.550;7.980;2023-05-19T05:27:17;7.30;;;4.72;;
18822;SDS011;9540;51.550;7.980;2023-05-19T05:29:45;7.63;;;4.93;;
18822;SDS011;9540;51.550;7.980;2023-05-19T05:32:12;9.73;;;5.13;;
18822;SDS011;9540;51.550;7.980;2023-05-19T05:34:41;9.85;;;5.15;;
18822;SDS011;9540;51.550;7.980;2023-05-19T05:37:08;8.95;;;5.30;;
18822;SDS011;9540;51.550;7.980;2023-05-19T05:39:35;8.98;;;5.45;;
18822;SDS011;9540;51.550;7.980;2023-05-19T05:42:02;9.55;;;4.30;;
18822;SDS011;9540;51.550;7.980;2023-05-19T05:44:30;11.85;;;5.60;;
18822;SDS011;9540;51.550;7.980;2023-05-19T05:47:00;6.90;;;5.03;;
18822;SDS011;9540;51.550;7.980;2023-05-19T05:49:27;12.23;;;5.47;;
18822;SDS011;9540;51.550;7.980;2023-05-19T05:51:55;6.78;;;5.45;;
18822;SDS011;9540;51.550;7.980;2023-05-19T05:54:23;13.25;;;6.35;;
18822;SDS011;9540;51.550;7.980;2023-05-19T05:56:51;9.23;;;5.32;;
18822;SDS011;9540;51.550;7.980;2023-05-19T05:59:18;13.77;;;6.00;;
18822;SDS011;9540;51.550;7.980;2023-05-19T06:01:45;15.35;;;5.43;;
18822;SDS011;9540;51.550;7.980;2023-05-19T06:04:14;9.20;;;4.50;;
18822;SDS011;9540;51.550;7.980;2023-05-19T06:06:41;7.82;;;4.72;;
18822;SDS011;9540;51.550;7.980;2023-05-19T06:09:08;9.43;;;4.50;;
18822;SDS011;9540;51.550;7.980;2023-05-19T06:11:35;9.20;;;5.25;;
18822;SDS011;9540;51.550;7.980;2023-05-19T06:14:02;8.25;;;5.20;;
18822;SDS011;9540;51.550;7.980;2023-05-19T06:16:29;8.18;;;4.85;;
18822;SDS011;9540;51.550;7.980;2023-05-19T06:18:56;9.15;;;4.47;;
18822;SDS011;9540;51.550;7.980;2023-05-19T06:21:25;6.43;;;4.22;;
18822;SDS011;9540;51.550;7.980;2023-05-19T06:23:52;7.28;;;4.03;;
18822;SDS011;9540;51.550;7.980;2023-05-19T06:26:19;8.02;;;4.07;;
18822;SDS011;9540;51.550;7.980;2023-05-19T06:28:46;5.20;;;3.67;;
18822;SDS011;9540;51.550;7.980;2023-05-19T06:31:14;8.95;;;4.03;;
18822;SDS011;9540;51.550;7.980;2023-05-19T06:33:41;13.43;;;4.63;;
18822;SDS011;9540;51.550;7.980;2023-05-19T06:36:08;7.18;;;3.80;;
18822;SDS011;9540;51.550;7.980;2023-05-19T06:38:37;6.97;;;3.88;;
18822;SDS011;9540;51.550;7.980;2023-05-19T06:41:04;10.75;;;5.10;;
18822;SDS011;9540;51.550;7.980;2023-05-19T06:43:31;4.80;;;3.65;;
18822;SDS011;9540;51.550;7.980;2023-05-19T06:45:58;4.63;;;3.40;;
18822;SDS011;9540;51.550;7.980;2023-05-19T06:48:28;5.18;;;3.60;;
18822;SDS011;9540;51.550;7.980;2023-05-19T06:50:56;8.73;;;3.53;;
18822;SDS011;9540;51.550;7.980;2023-05-19T06:53:23;9.95;;;3.60;;
18822;SDS011;9540;51.550;7.980;2023-05-19T06:55:52;8.05;;;3.70;;
18822;SDS011;9540;51.550;7.980;2023-05-19T06:58:19;7.18;;;3.25;;
18822;SDS011;9540;51.550;7.980;2023-05-19T07:00:46;8.00;;;3.60;;
18822;SDS011;9540;51.550;7.980;2023-05-19T07:03:13;9.52;;;4.20;;
18822;SDS011;9540;51.550;7.980;2023-05-19T07:05:40;12.70;;;3.97;;
18822;SDS011;9540;51.550;7.980;2023-05-19T07:08:07;6.90;;;3.40;;
18822;SDS011;9540;51.550;7.980;2023-05-19T07:10:35;7.20;;;3.95;;
18822;SDS011;9540;51.550;7.980;2023-05-19T07:13:03;7.65;;;3.85;;
18822;SDS011;9540;51.550;7.980;2023-05-19T07:15:30;10.02;;;4.30;;
18822;SDS011;9540;51.550;7.980;2023-05-19T07:17:57;7.13;;;3.00;;
18822;SDS011;9540;51.550;7.980;2023-05-19T07:20:25;8.90;;;3.67;;
18822;SDS011;9540;51.550;7.980;2023-05-19T07:22:52;7.72;;;3.55;;
18822;SDS011;9540;51.550;7.980;2023-05-19T07:25:19;7.10;;;3.58;;
18822;SDS011;9540;51.550;7.980;2023-05-19T07:27:50;9.38;;;3.63;;
18822;SDS011;9540;51.550;7.980;2023-05-19T07:30:23;13.48;;;4.43;;
18822;SDS011;9540;51.550;7.980;2023-05-19T07:33:03;7.60;;;3.25;;
18822;SDS011;9540;51.550;7.980;2023-05-19T07:35:33;9.88;;;3.97;;
18822;SDS011;9540;51.550;7.980;2023-05-19T07:38:12;12.20;;;3.88;;
18822;SDS011;9540;51.550;7.980;2023-05-19T07:40:48;7.63;;;3.90;;
18822;SDS011;9540;51.550;7.980;2023-05-19T07:43:26;6.70;;;3.20;;
18822;SDS011;9540;51.550;7.980;2023-05-19T07:46:07;11.30;;;4.35;;
18822;SDS011;9540;51.550;7.980;2023-05-19T07:48:44;6.38;;;3.55;;
18822;SDS011;9540;51.550;7.980;2023-05-19T07:51:13;8.93;;;3.85;;
18822;SDS011;9540;51.550;7.980;2023-05-19T07:53:41;8.00;;;3.50;;
18822;SDS011;9540;51.550;7.980;2023-05-19T07:56:08;6.80;;;3.15;;
18822;SDS011;9540;51.550;7.980;2023-05-19T07:58:35;7.32;;;3.00;;
18822;SDS011;9540;51.550;7.980;2023-05-19T08:01:04;7.15;;;3.08;;
18822;SDS011;9540;51.550;7.980;2023-05-19T08:03:31;8.27;;;3.10;;
18822;SDS011;9540;51.550;7.980;2023-05-19T08:05:58;9.45;;;3.47;;
18822;SDS011;9540;51.550;7.980;2023-05-19T08:08:25;11.32;;;3.20;;
18822;SDS011;9540;51.550;7.980;2023-05-19T08:10:52;8.68;;;3.17;;
18822;SDS011;9540;51.550;7.980;2023-05-19T08:13:19;8.80;;;3.40;;
18822;SDS011;9540;51.550;7.980;2023-05-19T08:15:46;10.07;;;3.00;;
18822;SDS011;9540;51.550;7.980;2023-05-19T08:18:15;8.13;;;2.88;;
18822;SDS011;9540;51.550;7.980;2023-05-19T08:20:42;6.95;;;2.88;;
18822;SDS011;9540;51.550;7.980;2023-05-19T08:23:10;4.88;;;2.55;;
18822;SDS011;9540;51.550;7.980;2023-05-19T08:25:38;10.07;;;3.00;;
18822;SDS011;9540;51.550;7.980;2023-05-19T08:28:05;9.07;;;3.08;;
18822;SDS011;9540;51.550;7.980;2023-05-19T08:30:32;7.80;;;2.30;;
18822;SDS011;9540;51.550;7.980;2023-05-19T08:33:00;5.40;;;2.03;;
18822;SDS011;9540;51.550;7.980;2023-05-19T08:35:28;6.05;;;2.63;;
18822;SDS011;9540;51.550;7.980;2023-05-19T08:37:56;4.05;;;2.55;;
18822;SDS011;9540;51.550;7.980;2023-05-19T08:40:23;3.65;;;2.35;;
18822;SDS011;9540;51.550;7.980;2023-05-19T08:42:53;9.25;;;2.40;;
18822;SDS011;9540;51.550;7.980;2023-05-19T08:45:20;11.18;;;2.50;;
18822;SDS011;9540;51.550;7.980;2023-05-19T08:47:47;6.78;;;2.47;;
18822;SDS011;9540;51.550;7.980;2023-05-19T08:50:16;7.28;;;2.70;;
18822;SDS011;9540;51.550;7.980;2023-05-19T08:52:51;5.10;;;2.78;;
18822;SDS011;9540;51.550;7.980;2023-05-19T08:55:28;5.80;;;3.30;;
18822;SDS011;9540;51.550;7.980;2023-05-19T08:58:02;8.35;;;2.20;;
18822;SDS011;9540;51.550;7.980;2023-05-19T09:00:30;6.80;;;2.28;;
18822;SDS011;9540;51.550;7.980;2023-05-19T09:02:58;7.13;;;2.70;;
18822;SDS011;9540;51.550;7.980;2023-05-19T09:05:26;8.50;;;2.33;;
18822;SDS011;9540;51.550;7.980;2023-05-19T09:07:55;5.60;;;1.98;;
18822;SDS011;9540;51.550;7.980;2023-05-19T09:10:22;5.50;;;2.38;;
18822;SDS011;9540;51.550;7.980;2023-05-19T09:12:49;6.32;;;2.20;;
18822;SDS011;9540;51.550;7.980;2023-05-19T09:15:16;10.80;;;2.20;;
18822;SDS011;9540;51.550;7.980;2023-05-19T09:17:44;6.88;;;1.92;;
18822;SDS011;9540;51.550;7.980;2023-05-19T09:20:12;7.53;;;1.60;;
18822;SDS011;9540;51.550;7.980;2023-05-19T09:22:41;5.13;;;1.80;;
18822;SDS011;9540;51.550;7.980;2023-05-19T09:25:20;5.40;;;1.73;;
18822;SDS011;9540;51.550;7.980;2023-05-19T09:27:48;11.27;;;2.58;;
18822;SDS011;9540;51.550;7.980;2023-05-19T09:30:16;4.40;;;1.73;;
18822;SDS011;9540;51.550;7.980;2023-05-19T09:32:43;5.68;;;1.73;;
18822;SDS011;9540;51.550;7.980;2023-05-19T09:35:11;5.43;;;2.10;;
18822;SDS011;9540;51.550;7.980;2023-05-19T09:37:41;3.67;;;1.75;;
18822;SDS011;9540;51.550;7.980;2023-05-19T09:40:09;11.05;;;2.70;;
18822;SDS011;9540;51.550;7.980;2023-05-19T09:42:40;6.90;;;2.20;;
18822;SDS011;9540;51.550;7.980;2023-05-19T09:45:08;6.15;;;2.38;;
18822;SDS011;9540;51.550;7.980;2023-05-19T09:47:36;2.75;;;2.00;;
18822;SDS011;9540;51.550;7.980;2023-05-19T09:50:04;6.40;;;1.92;;
18822;SDS011;9540;51.550;7.980;2023-05-19T09:52:36;7.78;;;2.13;;
18822;SDS011;9540;51.550;7.980;2023-05-19T09:55:04;6.38;;;2.03;;
18822;SDS011;9540;51.550;7.980;2023-05-19T09:57:34;4.95;;;2.28;;
18822;SDS011;9540;51.550;7.980;2023-05-19T10:00:05;6.22;;;2.10;;
18822;SDS011;9540;51.550;7.980;2023-05-19T10:02:42;7.28;;;2.30;;
18822;SDS011;9540;51.550;7.980;2023-05-19T10:05:11;6.40;;;1.85;;
18822;SDS011;9540;51.550;7.980;2023-05-19T10:07:41;13.82;;;2.50;;
18822;SDS011;9540;51.550;7.980;2023-05-19T10:10:10;3.33;;;1.80;;
18822;SDS011;9540;51.550;7.980;2023-05-19T10:12:39;3.33;;;1.92;;
18822;SDS011;9540;51.550;7.980;2023-05-19T10:15:09;3.40;;;1.63;;
18822;SDS011;9540;51.550;7.980;2023-05-19T10:17:41;7.82;;;2.75;;
18822;SDS011;9540;51.550;7.980;2023-05-19T10:20:10;5.55;;;1.70;;
18822;SDS011;9540;51.550;7.980;2023-05-19T10:22:38;6.57;;;2.05;;
18822;SDS011;9540;51.550;7.980;2023-05-19T10:25:06;3.83;;;1.80;;
18822;SDS011;9540;51.550;7.980;2023-05-19T10:27:34;3.80;;;1.73;;
18822;SDS011;9540;51.550;7.980;2023-05-19T10:30:05;6.28;;;1.67;;
18822;SDS011;9540;51.550;7.980;2023-05-19T10:32:37;10.23;;;2.28;;
18822;SDS011;9540;51.550;7.980;2023-05-19T10:38:17;5.20;;;1.58;;
18822;SDS011;9540;51.550;7.980;2023-05-19T10:40:56;3.85;;;1.73;;
18822;SDS011;9540;51.550;7.980;2023-05-19T10:43:30;4.15;;;1.80;;
18822;SDS011;9540;51.550;7.980;2023-05-19T10:46:11;13.90;;;2.00;;
18822;SDS011;9540;51.550;7.980;2023-05-19T10:48:38;5.35;;;1.70;;
18822;SDS011;9540;51.550;7.980;2023-05-19T10:51:09;2.60;;;1.60;;
18822;SDS011;9540;51.550;7.980;2023-05-19T10:53:39;4.38;;;2.00;;
18822;SDS011;9540;51.550;7.980;2023-05-19T10:56:10;4.18;;;1.58;;
18822;SDS011;9540;51.550;7.980;2023-05-19T10:58:54;2.60;;;1.58;;
18822;SDS011;9540;51.550;7.980;2023-05-19T11:01:22;7.18;;;2.35;;
18822;SDS011;9540;51.550;7.980;2023-05-19T11:03:56;4.70;;;1.52;;
18822;SDS011;9540;51.550;7.980;2023-05-19T11:06:27;5.22;;;1.70;;
18822;SDS011;9540;51.550;7.980;2023-05-19T11:08:56;3.22;;;1.55;;
18822;SDS011;9540;51.550;7.980;2023-05-19T11:11:41;4.05;;;1.30;;
18822;SDS011;9540;51.550;7.980;2023-05-19T11:14:11;4.10;;;1.60;;
18822;SDS011;9540;51.550;7.980;2023-05-19T11:16:39;5.95;;;2.03;;
18822;SDS011;9540;51.550;7.980;2023-05-19T11:19:07;3.83;;;1.70;;
18822;SDS011;9540;51.550;7.980;2023-05-19T11:21:41;2.55;;;1.40;;
18822;SDS011;9540;51.550;7.980;2023-05-19T11:27:20;4.93;;;2.00;;
18822;SDS011;9540;51.550;7.980;2023-05-19T11:29:49;6.68;;;1.75;;
18822;SDS011;9540;51.550;7.980;2023-05-19T11:32:20;5.50;;;1.90;;
18822;SDS011;9540;51.550;7.980;2023-05-19T11:34:48;5.85;;;1.50;;
18822;SDS011;9540;51.550;7.980;2023-05-19T11:37:15;3.42;;;1.52;;
18822;SDS011;9540;51.550;7.980;2023-05-19T11:39:43;5.65;;;1.58;;
18822;SDS011;9540;51.550;7.980;2023-05-19T11:42:11;7.72;;;1.80;;
18822;SDS011;9540;51.550;7.980;2023-05-19T11:44:39;3.38;;;1.45;;
18822;SDS011;9540;51.550;7.980;2023-05-19T11:47:06;2.97;;;1.58;;
18822;SDS011;9540;51.550;7.980;2023-05-19T11:49:35;5.63;;;1.42;;
18822;SDS011;9540;51.550;7.980;2023-05-19T11:52:03;3.47;;;1.67;;
18822;SDS011;9540;51.550;7.980;2023-05-19T11:54:34;9.15;;;1.98;;
18822;SDS011;9540;51.550;7.980;2023-05-19T11:57:01;4.70;;;1.90;;
18822;SDS011;9540;51.550;7.980;2023-05-19T11:59:30;11.93;;;2.80;;
18822;SDS011;9540;51.550;7.980;2023-05-19T12:01:59;4.93;;;2.13;;
18822;SDS011;9540;51.550;7.980;2023-05-19T12:04:28;3.17;;;2.00;;
18822;SDS011;9540;51.550;7.980;2023-05-19T12:06:57;3.42;;;1.50;;
18822;SDS011;9540;51.550;7.980;2023-05-19T12:09:26;4.93;;;1.42;;
18822;SDS011;9540;51.550;7.980;2023-05-19T12:11:54;2.33;;;1.65;;
18822;SDS011;9540;51.550;7.980;2023-05-19T12:14:21;3.30;;;1.73;;
18822;SDS011;9540;51.550;7.980;2023-05-19T12:16:52;2.85;;;1.40;;
18822;SDS011;9540;51.550;7.980;2023-05-19T12:19:21;3.47;;;1.90;;
18822;SDS011;9540;51.550;7.980;2023-05-19T12:21:49;5.78;;;1.58;;
18822;SDS011;9540;51.550;7.980;2023-05-19T12:24:18;1.92;;;1.40;;
18822;SDS011;9540;51.550;7.980;2023-05-19T12:26:46;3.47;;;1.60;;
18822;SDS011;9540;51.550;7.980;2023-05-19T12:29:14;2.85;;;1.50;;
18822;SDS011;9540;51.550;7.980;2023-05-19T12:31:41;3.47;;;1.70;;
18822;SDS011;9540;51.550;7.980;2023-05-19T12:34:12;7.68;;;1.60;;
18822;SDS011;9540;51.550;7.980;2023-05-19T12:36:39;3.70;;;1.60;;
18822;SDS011;9540;51.550;7.980;2023-05-19T12:39:07;7.65;;;1.98;;
18822;SDS011;9540;51.550;7.980;2023-05-19T12:41:37;5.05;;;1.70;;
18822;SDS011;9540;51.550;7.980;2023-05-19T12:44:12;5.95;;;1.98;;
18822;SDS011;9540;51.550;7.980;2023-05-19T12:46:40;4.25;;;1.60;;
18822;SDS011;9540;51.550;7.980;2023-05-19T12:49:08;2.13;;;1.27;;
18822;SDS011;9540;51.550;7.980;2023-05-19T12:51:36;8.13;;;1.85;;
18822;SDS011;9540;51.550;7.980;2023-05-19T12:54:04;2.95;;;1.48;;
18822;SDS011;9540;51.550;7.980;2023-05-19T12:56:31;6.00;;;1.73;;
18822;SDS011;9540;51.550;7.980;2023-05-19T12:59:00;5.32;;;1.60;;
18822;SDS011;9540;51.550;7.980;2023-05-19T13:01:28;5.55;;;1.73;;
18822;SDS011;9540;51.550;7.980;2023-05-19T13:03:55;5.40;;;2.10;;
18822;SDS011;9540;51.550;7.980;2023-05-19T13:06:23;4.43;;;1.83;;
18822;SDS011;9540;51.550;7.980;2023-05-19T13:08:50;4.93;;;1.65;;
18822;SDS011;9540;51.550;7.980;2023-05-19T13:11:17;1.77;;;1.60;;
18822;SDS011;9540;51.550;7.980;2023-05-19T13:13:45;2.90;;;1.42;;
18822;SDS011;9540;51.550;7.980;2023-05-19T13:16:13;5.78;;;1.88;;
18822;SDS011;9540;51.550;7.980;2023-05-19T13:18:41;1.98;;;1.42;;
18822;SDS011;9540;51.550;7.980;2023-05-19T13:21:08;2.63;;;1.48;;
18822;SDS011;9540;51.550;7.980;2023-05-19T13:23:35;7.38;;;1.63;;
18822;SDS011;9540;51.550;7.980;2023-05-19T13:26:03;3.40;;;1.70;;
18822;SDS011;9540;51.550;7.980;2023-05-19T13:28:31;2.85;;;1.50;;
18822;SDS011;9540;51.550;7.980;2023-05-19T13:30:58;2.90;;;1.52;;
18822;SDS011;9540;51.550;7.980;2023-05-19T13:33:27;2.63;;;1.52;;
18822;SDS011;9540;51.550;7.980;2023-05-19T13:35:54;3.30;;;1.63;;
18822;SDS011;9540;51.550;7.980;2023-05-19T13:38:21;2.75;;;1.60;;
18822;SDS011;9540;51.550;7.980;2023-05-19T13:40:49;2.92;;;1.50;;
18822;SDS011;9540;51.550;7.980;2023-05-19T13:43:16;1.67;;;1.50;;
18822;SDS011;9540;51.550;7.980;2023-05-19T13:45:43;2.35;;;1.85;;
18822;SDS011;9540;51.550;7.980;2023-05-19T13:48:10;2.42;;;1.45;;
18822;SDS011;9540;51.550;7.980;2023-05-19T13:50:38;4.00;;;1.70;;
18822;SDS011;9540;51.550;7.980;2023-05-19T13:53:06;3.38;;;1.60;;
18822;SDS011;9540;51.550;7.980;2023-05-19T13:55:35;2.55;;;1.42;;
18822;SDS011;9540;51.550;7.980;2023-05-19T13:58:02;3.70;;;1.80;;
18822;SDS011;9540;51.550;7.980;2023-05-19T14:00:30;1.50;;;1.40;;
18822;SDS011;9540;51.550;7.980;2023-05-19T14:02:57;3.65;;;2.05;;
18822;SDS011;9540;51.550;7.980;2023-05-19T14:05:24;1.70;;;1.30;;
18822;SDS011;9540;51.550;7.980;2023-05-19T14:07:54;2.95;;;1.40;;
18822;SDS011;9540;51.550;7.980;2023-05-19T14:10:22;1.60;;;1.50;;
18822;SDS011;9540;51.550;7.980;2023-05-19T14:12:49;2.33;;;1.50;;
18822;SDS011;9540;51.550;7.980;2023-05-19T14:15:18;2.05;;;1.85;;
18822;SDS011;9540;51.550;7.980;2023-05-19T14:17:45;5.90;;;1.90;;
18822;SDS011;9540;51.550;7.980;2023-05-19T14:20:14;5.90;;;1.65;;
18822;SDS011;9540;51.550;7.980;2023-05-19T14:22:47;3.20;;;1.48;;
18822;SDS011;9540;51.550;7.980;2023-05-19T14:25:16;2.50;;;1.70;;
18822;SDS011;9540;51.550;7.980;2023-05-19T14:27:43;2.83;;;1.67;;
18822;SDS011;9540;51.550;7.980;2023-05-19T14:30:10;3.40;;;1.60;;
18822;SDS011;9540;51.550;7.980;2023-05-19T14:32:37;3.53;;;1.55;;
18822;SDS011;9540;51.550;7.980;2023-05-19T14:35:05;3.25;;;1.55;;
18822;SDS011;9540;51.550;7.980;2023-05-19T14:37:32;4.35;;;1.67;;
18822;SDS011;9540;51.550;7.980;2023-05-19T14:39:59;1.33;;;1.23;;
18822;SDS011;9540;51.550;7.980;2023-05-19T14:42:29;3.72;;;1.67;;
18822;SDS011;9540;51.550;7.980;2023-05-19T14:44:56;3.38;;;1.92;;
18822;SDS011;9540;51.550;7.980;2023-05-19T14:47:23;3.60;;;1.50;;
18822;SDS011;9540;51.550;7.980;2023-05-19T14:49:51;2.75;;;1.45;;
18822;SDS011;9540;51.550;7.980;2023-05-19T14:52:18;4.47;;;1.83;;
18822;SDS011;9540;51.550;7.980;2023-05-19T14:58:10;3.63;;;1.70;;
18822;SDS011;9540;51.550;7.980;2023-05-19T15:00:38;4.40;;;1.75;;
18822;SDS011;9540;51.550;7.980;2023-05-19T15:03:06;4.18;;;1.73;;
18822;SDS011;9540;51.550;7.980;2023-05-19T15:05:33;2.40;;;1.60;;
18822;SDS011;9540;51.550;7.980;2023-05-19T15:08:02;2.70;;;1.95;;
18822;SDS011;9540;51.550;7.980;2023-05-19T15:10:29;7.00;;;1.73;;
18822;SDS011;9540;51.550;7.980;2023-05-19T15:12:56;2.92;;;1.63;;
18822;SDS011;9540;51.550;7.980;2023-05-19T15:15:26;2.72;;;1.55;;
18822;SDS011;9540;51.550;7.980;2023-05-19T15:17:53;1.73;;;1.30;;
18822;SDS011;9540;51.550;7.980;2023-05-19T15:20:20;3.75;;;1.83;;